sensor_id;sensor_type;location;lat;lon;timestamp;temperature;humidity
33741;DHT22;20065;48.380;10.892;2023-02-08T00:02:36;-2.30;99.90
33741;DHT22;20065;48.380;10.892;2023-02-08T00:05:22;-2.30;99.90
33741;DHT22;20065;48.380;10.892;2023-02-08T00:08:14;-2.30;99.90
33741;DHT22;20065;48.380;10.892;2023-02-08T00:11:04;-2.40;99.90
33741;DHT22;20065;48.380;10.892;2023-02-08T00:13:51;-2.40;99.90
33741;DHT22;20065;48.380;10.892;2023-02-08T00:16:37;-2.50;99.90
33741;DHT22;20065;48.380;10.892;2023-02-08T00:19:25;-2.50;99.90
33741;DHT22;20065;48.380;10.892;2023-02-08T00:22:12;-2.50;99.90
33741;DHT22;20065;48.380;10.892;2023-02-08T00:25:05;-2.50;99.90
33741;DHT22;20065;48.380;10.892;2023-02-08T00:27:52;-2.60;99.90
33741;DHT22;20065;48.380;10.892;2023-02-08T00:30:39;-2.60;99.90
33741;DHT22;20065;48.380;10.892;2023-02-08T00:33:27;-2.50;99.90
33741;DHT22;20065;48.380;10.892;2023-02-08T00:36:14;-2.60;99.90
33741;DHT22;20065;48.380;10.892;2023-02-08T00:39:00;-2.60;99.90
33741;DHT22;20065;48.380;10.892;2023-02-08T00:41:47;-2.70;99.90
33741;DHT22;20065;48.380;10.892;2023-02-08T00:44:33;-2.70;99.90
33741;DHT22;20065;48.380;10.892;2023-02-08T00:47:19;-2.70;99.90
33741;DHT22;20065;48.380;10.892;2023-02-08T00:50:06;-2.70;99.90
33741;DHT22;20065;48.380;10.892;2023-02-08T00:52:57;-2.80;99.90
33741;DHT22;20065;48.380;10.892;2023-02-08T00:55:50;-2.80;99.90
33741;DHT22;20065;48.380;10.892;2023-02-08T00:58:37;-2.80;99.90
33741;DHT22;20065;48.380;10.892;2023-02-08T01:01:23;-2.90;99.90
33741;DHT22;20065;48.380;10.892;2023-02-08T01:04:12;-2.90;99.90
33741;DHT22;20065;48.380;10.892;2023-02-08T01:06:58;-2.90;99.90
33741;DHT22;20065;48.380;10.892;2023-02-08T01:09:44;-3.00;99.90
33741;DHT22;20065;48.380;10.892;2023-02-08T01:12:31;-3.00;99.90
33741;DHT22;20065;48.380;10.892;2023-02-08T01:15:18;-3.00;99.90
33741;DHT22;20065;48.380;10.892;2023-02-08T01:18:05;-3.00;99.90
33741;DHT22;20065;48.380;10.892;2023-02-08T01:20:51;-3.10;99.90
33741;DHT22;20065;48.380;10.892;2023-02-08T01:23:38;-3.10;99.90
33741;DHT22;20065;48.380;10.892;2023-02-08T01:26:25;-3.20;99.90
33741;DHT22;20065;48.380;10.892;2023-02-08T01:29:11;-3.20;99.90
33741;DHT22;20065;48.380;10.892;2023-02-08T01:31:58;-3.20;99.90
33741;DHT22;20065;48.380;10.892;2023-02-08T01:34:44;-3.20;99.90
33741;DHT22;20065;48.380;10.892;2023-02-08T01:37:30;-3.20;99.90
33741;DHT22;20065;48.380;10.892;2023-02-08T01:40:16;-3.20;99.90
33741;DHT22;20065;48.380;10.892;2023-02-08T01:43:02;-3.20;99.90
33741;DHT22;20065;48.380;10.892;2023-02-08T01:45:54;-3.20;99.90
33741;DHT22;20065;48.380;10.892;2023-02-08T01:48:40;-3.20;99.90
33741;DHT22;20065;48.380;10.892;2023-02-08T01:51:31;-3.30;99.90
33741;DHT22;20065;48.380;10.892;2023-02-08T01:54:22;-3.30;99.90
33741;DHT22;20065;48.380;10.892;2023-02-08T01:57:11;-3.40;99.90
33741;DHT22;20065;48.380;10.892;2023-02-08T02:00:14;-3.40;99.90
33741;DHT22;20065;48.380;10.892;2023-02-08T02:03:01;-3.40;99.90
33741;DHT22;20065;48.380;10.892;2023-02-08T02:05:54;-3.40;99.90
33741;DHT22;20065;48.380;10.892;2023-02-08T02:08:49;-3.40;99.90
33741;DHT22;20065;48.380;10.892;2023-02-08T02:11:42;-3.40;99.90
33741;DHT22;20065;48.380;10.892;2023-02-08T02:14:28;-3.40;99.90
33741;DHT22;20065;48.380;10.892;2023-02-08T02:17:16;-3.50;99.90
33741;DHT22;20065;48.380;10.892;2023-02-08T02:29:38;-3.60;99.90
33741;DHT22;20065;48.380;10.892;2023-02-08T02:35:45;-3.60;99.90
33741;DHT22;20065;48.380;10.892;2023-02-08T02:38:52;-3.60;99.90
33741;DHT22;20065;48.380;10.892;2023-02-08T02:42:57;-3.60;99.90
33741;DHT22;20065;48.380;10.892;2023-02-08T02:52:02;-3.80;99.90
33741;DHT22;20065;48.380;10.892;2023-02-08T02:54:52;-3.80;99.90
33741;DHT22;20065;48.380;10.892;2023-02-08T02:57:41;-3.80;99.90
33741;DHT22;20065;48.380;10.892;2023-02-08T03:00:30;-3.80;99.90
33741;DHT22;20065;48.380;10.892;2023-02-08T03:03:24;-3.80;99.90
33741;DHT22;20065;48.380;10.892;2023-02-08T03:09:37;-3.80;99.90
33741;DHT22;20065;48.380;10.892;2023-02-08T03:21:54;-3.90;99.90
33741;DHT22;20065;48.380;10.892;2023-02-08T03:24:50;-3.90;99.90
33741;DHT22;20065;48.380;10.892;2023-02-08T03:31:13;-3.90;99.90
33741;DHT22;20065;48.380;10.892;2023-02-08T03:34:32;-3.90;99.90
33741;DHT22;20065;48.380;10.892;2023-02-08T03:37:27;-3.90;99.90
33741;DHT22;20065;48.380;10.892;2023-02-08T03:40:38;-3.90;99.90
33741;DHT22;20065;48.380;10.892;2023-02-08T03:43:36;-4.00;99.90
33741;DHT22;20065;48.380;10.892;2023-02-08T03:46:31;-4.00;99.90
33741;DHT22;20065;48.380;10.892;2023-02-08T03:49:26;-4.00;99.90
33741;DHT22;20065;48.380;10.892;2023-02-08T03:52:14;-4.00;99.90
33741;DHT22;20065;48.380;10.892;2023-02-08T03:55:04;-4.00;99.90
33741;DHT22;20065;48.380;10.892;2023-02-08T04:01:00;-4.00;99.90
33741;DHT22;20065;48.380;10.892;2023-02-08T04:03:48;-4.00;99.90
33741;DHT22;20065;48.380;10.892;2023-02-08T04:06:38;-3.90;99.90
33741;DHT22;20065;48.380;10.892;2023-02-08T04:09:24;-4.00;99.90
33741;DHT22;20065;48.380;10.892;2023-02-08T04:12:11;-4.00;99.90
33741;DHT22;20065;48.380;10.892;2023-02-08T04:14:57;-4.00;99.90
33741;DHT22;20065;48.380;10.892;2023-02-08T04:17:43;-4.00;99.90
33741;DHT22;20065;48.380;10.892;2023-02-08T04:20:29;-4.00;99.90
33741;DHT22;20065;48.380;10.892;2023-02-08T04:23:16;-4.10;99.90
33741;DHT22;20065;48.380;10.892;2023-02-08T04:26:02;-4.00;99.90
33741;DHT22;20065;48.380;10.892;2023-02-08T04:28:49;-4.10;99.90
33741;DHT22;20065;48.380;10.892;2023-02-08T04:31:35;-4.00;99.90
33741;DHT22;20065;48.380;10.892;2023-02-08T04:34:21;-4.00;99.90
33741;DHT22;20065;48.380;10.892;2023-02-08T04:37:07;-4.00;99.90
33741;DHT22;20065;48.380;10.892;2023-02-08T04:40:03;-4.00;99.90
33741;DHT22;20065;48.380;10.892;2023-02-08T04:42:50;-4.00;99.90
33741;DHT22;20065;48.380;10.892;2023-02-08T04:45:36;-4.00;99.90
33741;DHT22;20065;48.380;10.892;2023-02-08T04:48:22;-4.00;99.90
33741;DHT22;20065;48.380;10.892;2023-02-08T04:51:11;-4.00;99.90
33741;DHT22;20065;48.380;10.892;2023-02-08T04:53:57;-4.00;99.90
33741;DHT22;20065;48.380;10.892;2023-02-08T04:56:43;-4.00;99.90
33741;DHT22;20065;48.380;10.892;2023-02-08T04:59:29;-4.00;99.90
33741;DHT22;20065;48.380;10.892;2023-02-08T05:02:15;-4.00;99.90
33741;DHT22;20065;48.380;10.892;2023-02-08T05:05:01;-3.90;99.90
33741;DHT22;20065;48.380;10.892;2023-02-08T05:07:48;-3.90;99.90
33741;DHT22;20065;48.380;10.892;2023-02-08T05:10:34;-3.90;99.90
33741;DHT22;20065;48.380;10.892;2023-02-08T05:13:20;-3.90;99.90
33741;DHT22;20065;48.380;10.892;2023-02-08T05:16:06;-3.80;99.90
33741;DHT22;20065;48.380;10.892;2023-02-08T05:18:55;-3.80;99.90
33741;DHT22;20065;48.380;10.892;2023-02-08T05:21:41;-3.90;99.90
33741;DHT22;20065;48.380;10.892;2023-02-08T05:24:27;-3.80;99.90
33741;DHT22;20065;48.380;10.892;2023-02-08T05:27:13;-3.80;99.90
33741;DHT22;20065;48.380;10.892;2023-02-08T05:30:00;-3.90;99.90
33741;DHT22;20065;48.380;10.892;2023-02-08T05:32:46;-3.90;99.90
33741;DHT22;20065;48.380;10.892;2023-02-08T05:35:32;-3.90;99.90
33741;DHT22;20065;48.380;10.892;2023-02-08T05:38:18;-3.90;99.90
33741;DHT22;20065;48.380;10.892;2023-02-08T05:41:04;-3.90;99.90
33741;DHT22;20065;48.380;10.892;2023-02-08T05:43:51;-3.90;99.90
33741;DHT22;20065;48.380;10.892;2023-02-08T05:46:37;-3.90;99.90
33741;DHT22;20065;48.380;10.892;2023-02-08T05:49:23;-3.90;99.90
33741;DHT22;20065;48.380;10.892;2023-02-08T05:52:09;-4.00;99.90
33741;DHT22;20065;48.380;10.892;2023-02-08T05:54:55;-4.00;99.90
33741;DHT22;20065;48.380;10.892;2023-02-08T05:57:41;-4.00;99.90
33741;DHT22;20065;48.380;10.892;2023-02-08T06:00:28;-3.90;99.90
33741;DHT22;20065;48.380;10.892;2023-02-08T06:03:14;-3.90;99.90
33741;DHT22;20065;48.380;10.892;2023-02-08T06:06:00;-3.90;99.90
33741;DHT22;20065;48.380;10.892;2023-02-08T06:08:46;-3.80;99.90
33741;DHT22;20065;48.380;10.892;2023-02-08T06:11:32;-3.80;99.90
33741;DHT22;20065;48.380;10.892;2023-02-08T06:14:21;-3.90;99.90
33741;DHT22;20065;48.380;10.892;2023-02-08T06:17:07;-3.90;99.90
33741;DHT22;20065;48.380;10.892;2023-02-08T06:19:53;-4.00;99.90
33741;DHT22;20065;48.380;10.892;2023-02-08T06:22:39;-4.00;99.90
33741;DHT22;20065;48.380;10.892;2023-02-08T06:25:25;-3.90;99.90
33741;DHT22;20065;48.380;10.892;2023-02-08T06:28:12;-4.00;99.90
33741;DHT22;20065;48.380;10.892;2023-02-08T06:30:58;-4.00;99.90
33741;DHT22;20065;48.380;10.892;2023-02-08T06:33:44;-4.00;99.90
33741;DHT22;20065;48.380;10.892;2023-02-08T06:36:30;-4.10;99.90
33741;DHT22;20065;48.380;10.892;2023-02-08T06:39:17;-4.10;99.90
33741;DHT22;20065;48.380;10.892;2023-02-08T06:42:03;-4.10;99.90
33741;DHT22;20065;48.380;10.892;2023-02-08T06:44:49;-4.10;99.90
33741;DHT22;20065;48.380;10.892;2023-02-08T06:47:36;-4.10;99.90
33741;DHT22;20065;48.380;10.892;2023-02-08T06:50:22;-4.10;99.90
33741;DHT22;20065;48.380;10.892;2023-02-08T06:53:08;-4.20;99.90
33741;DHT22;20065;48.380;10.892;2023-02-08T06:55:55;-4.20;99.90
33741;DHT22;20065;48.380;10.892;2023-02-08T06:58:41;-4.20;99.90
33741;DHT22;20065;48.380;10.892;2023-02-08T07:01:28;-4.20;99.90
33741;DHT22;20065;48.380;10.892;2023-02-08T07:04:14;-4.20;99.90
33741;DHT22;20065;48.380;10.892;2023-02-08T07:07:00;-4.20;99.90
33741;DHT22;20065;48.380;10.892;2023-02-08T07:09:46;-4.10;99.90
33741;DHT22;20065;48.380;10.892;2023-02-08T07:12:35;-4.10;99.90
33741;DHT22;20065;48.380;10.892;2023-02-08T07:15:22;-4.10;99.90
33741;DHT22;20065;48.380;10.892;2023-02-08T07:18:08;-4.10;99.90
33741;DHT22;20065;48.380;10.892;2023-02-08T07:20:54;-4.10;99.90
33741;DHT22;20065;48.380;10.892;2023-02-08T07:23:40;-4.00;99.90
33741;DHT22;20065;48.380;10.892;2023-02-08T07:26:26;-4.00;99.90
33741;DHT22;20065;48.380;10.892;2023-02-08T07:29:13;-3.90;99.90
33741;DHT22;20065;48.380;10.892;2023-02-08T07:32:00;-3.80;99.90
33741;DHT22;20065;48.380;10.892;2023-02-08T07:34:46;-3.70;99.90
33741;DHT22;20065;48.380;10.892;2023-02-08T07:37:33;-3.60;99.90
33741;DHT22;20065;48.380;10.892;2023-02-08T07:40:19;-3.60;99.90
33741;DHT22;20065;48.380;10.892;2023-02-08T07:43:05;-3.50;99.90
33741;DHT22;20065;48.380;10.892;2023-02-08T07:46:19;-3.50;99.90
33741;DHT22;20065;48.380;10.892;2023-02-08T07:49:05;-3.40;99.90
33741;DHT22;20065;48.380;10.892;2023-02-08T07:51:51;-3.40;99.90
33741;DHT22;20065;48.380;10.892;2023-02-08T07:54:37;-3.30;99.90
33741;DHT22;20065;48.380;10.892;2023-02-08T07:57:24;-3.30;99.90
33741;DHT22;20065;48.380;10.892;2023-02-08T08:00:11;-3.20;99.90
33741;DHT22;20065;48.380;10.892;2023-02-08T08:03:00;-3.10;99.90
33741;DHT22;20065;48.380;10.892;2023-02-08T08:05:48;-3.00;99.90
33741;DHT22;20065;48.380;10.892;2023-02-08T08:08:34;-3.00;99.90
33741;DHT22;20065;48.380;10.892;2023-02-08T08:11:21;-3.00;99.90
33741;DHT22;20065;48.380;10.892;2023-02-08T08:14:07;-2.90;99.90
33741;DHT22;20065;48.380;10.892;2023-02-08T08:16:53;-2.80;99.90
33741;DHT22;20065;48.380;10.892;2023-02-08T08:19:39;-2.70;99.90
33741;DHT22;20065;48.380;10.892;2023-02-08T08:22:25;-2.60;99.90
33741;DHT22;20065;48.380;10.892;2023-02-08T08:25:12;-2.50;99.90
33741;DHT22;20065;48.380;10.892;2023-02-08T08:28:00;-2.40;99.90
33741;DHT22;20065;48.380;10.892;2023-02-08T08:30:46;-2.30;99.90
33741;DHT22;20065;48.380;10.892;2023-02-08T08:33:32;-2.20;99.90
33741;DHT22;20065;48.380;10.892;2023-02-08T08:36:18;-2.20;99.90
33741;DHT22;20065;48.380;10.892;2023-02-08T08:39:05;-2.00;99.90
33741;DHT22;20065;48.380;10.892;2023-02-08T08:41:51;-2.00;99.90
33741;DHT22;20065;48.380;10.892;2023-02-08T08:44:37;-1.90;99.90
33741;DHT22;20065;48.380;10.892;2023-02-08T08:47:24;-1.70;99.90
33741;DHT22;20065;48.380;10.892;2023-02-08T08:50:10;-1.60;99.90
33741;DHT22;20065;48.380;10.892;2023-02-08T08:52:56;-1.40;99.90
33741;DHT22;20065;48.380;10.892;2023-02-08T08:55:42;-0.60;99.90
33741;DHT22;20065;48.380;10.892;2023-02-08T08:58:28;0.30;99.90
33741;DHT22;20065;48.380;10.892;2023-02-08T09:01:15;1.00;99.90
33741;DHT22;20065;48.380;10.892;2023-02-08T09:04:01;1.20;99.90
33741;DHT22;20065;48.380;10.892;2023-02-08T09:06:51;0.90;99.90
33741;DHT22;20065;48.380;10.892;2023-02-08T09:09:39;1.20;99.90
33741;DHT22;20065;48.380;10.892;2023-02-08T09:12:26;1.90;99.90
33741;DHT22;20065;48.380;10.892;2023-02-08T09:15:12;2.90;99.90
33741;DHT22;20065;48.380;10.892;2023-02-08T09:17:58;3.80;99.90
33741;DHT22;20065;48.380;10.892;2023-02-08T09:20:44;4.70;99.90
33741;DHT22;20065;48.380;10.892;2023-02-08T09:23:31;4.80;99.90
33741;DHT22;20065;48.380;10.892;2023-02-08T09:26:18;4.80;99.20
33741;DHT22;20065;48.380;10.892;2023-02-08T09:29:05;3.40;99.90
33741;DHT22;20065;48.380;10.892;2023-02-08T09:31:52;2.70;99.90
33741;DHT22;20065;48.380;10.892;2023-02-08T09:34:38;2.90;99.90
33741;DHT22;20065;48.380;10.892;2023-02-08T09:37:24;3.90;99.90
33741;DHT22;20065;48.380;10.892;2023-02-08T09:40:37;3.90;99.90
33741;DHT22;20065;48.380;10.892;2023-02-08T09:43:34;2.50;99.90
33741;DHT22;20065;48.380;10.892;2023-02-08T09:46:29;1.70;99.90
33741;DHT22;20065;48.380;10.892;2023-02-08T09:49:46;1.30;99.90
33741;DHT22;20065;48.380;10.892;2023-02-08T09:52:38;1.70;99.90
33741;DHT22;20065;48.380;10.892;2023-02-08T09:58:32;4.50;99.90
33741;DHT22;20065;48.380;10.892;2023-02-08T10:01:25;4.70;99.80
33741;DHT22;20065;48.380;10.892;2023-02-08T10:04:21;4.50;99.80
33741;DHT22;20065;48.380;10.892;2023-02-08T10:07:10;4.10;99.90
33741;DHT22;20065;48.380;10.892;2023-02-08T10:10:02;4.20;99.90
33741;DHT22;20065;48.380;10.892;2023-02-08T10:15:54;4.50;99.90
33741;DHT22;20065;48.380;10.892;2023-02-08T10:18:51;4.70;99.90
33741;DHT22;20065;48.380;10.892;2023-02-08T10:22:07;5.00;99.90
33741;DHT22;20065;48.380;10.892;2023-02-08T10:37:31;8.30;95.50
33741;DHT22;20065;48.380;10.892;2023-02-08T10:43:26;10.10;91.90
33741;DHT22;20065;48.380;10.892;2023-02-08T10:46:29;10.90;90.90
33741;DHT22;20065;48.380;10.892;2023-02-08T10:52:41;12.40;84.70
33741;DHT22;20065;48.380;10.892;2023-02-08T10:55:30;12.00;85.60
33741;DHT22;20065;48.380;10.892;2023-02-08T10:58:20;11.50;85.80
33741;DHT22;20065;48.380;10.892;2023-02-08T11:01:07;11.40;87.10
33741;DHT22;20065;48.380;10.892;2023-02-08T11:04:08;11.20;87.00
33741;DHT22;20065;48.380;10.892;2023-02-08T11:06:55;11.50;86.50
33741;DHT22;20065;48.380;10.892;2023-02-08T11:09:42;12.20;86.20
33741;DHT22;20065;48.380;10.892;2023-02-08T11:12:28;12.20;85.30
33741;DHT22;20065;48.380;10.892;2023-02-08T11:15:30;11.60;86.00
33741;DHT22;20065;48.380;10.892;2023-02-08T11:19:14;11.00;86.40
33741;DHT22;20065;48.380;10.892;2023-02-08T11:21:36;10.60;87.80
33741;DHT22;20065;48.380;10.892;2023-02-08T11:24:34;10.40;88.10
33741;DHT22;20065;48.380;10.892;2023-02-08T11:33:19;8.60;91.00
33741;DHT22;20065;48.380;10.892;2023-02-08T11:36:10;8.30;91.30
33741;DHT22;20065;48.380;10.892;2023-02-08T11:39:01;7.90;92.30
33741;DHT22;20065;48.380;10.892;2023-02-08T11:41:49;8.00;92.70
33741;DHT22;20065;48.380;10.892;2023-02-08T11:44:42;8.60;91.80
33741;DHT22;20065;48.380;10.892;2023-02-08T11:47:32;8.20;92.10
33741;DHT22;20065;48.380;10.892;2023-02-08T11:50:35;7.60;92.50
33741;DHT22;20065;48.380;10.892;2023-02-08T11:53:31;6.30;93.70
33741;DHT22;20065;48.380;10.892;2023-02-08T11:56:23;5.30;95.60
33741;DHT22;20065;48.380;10.892;2023-02-08T11:59:17;4.50;96.80
33741;DHT22;20065;48.380;10.892;2023-02-08T12:02:38;4.10;98.20
33741;DHT22;20065;48.380;10.892;2023-02-08T12:08:38;3.50;99.30
33741;DHT22;20065;48.380;10.892;2023-02-08T12:11:40;3.40;99.90
33741;DHT22;20065;48.380;10.892;2023-02-08T12:21:22;2.80;99.90
33741;DHT22;20065;48.380;10.892;2023-02-08T12:27:24;2.40;99.90
33741;DHT22;20065;48.380;10.892;2023-02-08T12:30:28;2.40;99.90
33741;DHT22;20065;48.380;10.892;2023-02-08T12:36:23;2.20;99.90
33741;DHT22;20065;48.380;10.892;2023-02-08T12:39:40;2.30;99.90
33741;DHT22;20065;48.380;10.892;2023-02-08T12:43:11;2.40;99.90
33741;DHT22;20065;48.380;10.892;2023-02-08T12:55:25;1.90;99.90
33741;DHT22;20065;48.380;10.892;2023-02-08T12:58:42;1.80;99.90
33741;DHT22;20065;48.380;10.892;2023-02-08T13:01:36;1.70;99.90
33741;DHT22;20065;48.380;10.892;2023-02-08T13:04:36;1.70;99.90
33741;DHT22;20065;48.380;10.892;2023-02-08T13:07:40;1.70;99.90
33741;DHT22;20065;48.380;10.892;2023-02-08T13:10:40;1.70;99.90
33741;DHT22;20065;48.380;10.892;2023-02-08T13:13:34;1.50;99.90
33741;DHT22;20065;48.380;10.892;2023-02-08T13:16:25;1.40;99.90
33741;DHT22;20065;48.380;10.892;2023-02-08T13:22:11;1.40;99.90
33741;DHT22;20065;48.380;10.892;2023-02-08T13:25:00;1.50;99.90
33741;DHT22;20065;48.380;10.892;2023-02-08T13:27:47;1.20;99.90
33741;DHT22;20065;48.380;10.892;2023-02-08T13:30:36;1.30;99.90
33741;DHT22;20065;48.380;10.892;2023-02-08T13:36:33;1.40;99.90
33741;DHT22;20065;48.380;10.892;2023-02-08T13:39:41;1.50;99.90
33741;DHT22;20065;48.380;10.892;2023-02-08T13:42:40;1.50;99.90
33741;DHT22;20065;48.380;10.892;2023-02-08T13:45:39;1.50;99.90
33741;DHT22;20065;48.380;10.892;2023-02-08T13:48:42;1.50;99.90
33741;DHT22;20065;48.380;10.892;2023-02-08T13:54:19;1.40;99.90
33741;DHT22;20065;48.380;10.892;2023-02-08T14:00:33;1.50;99.90
33741;DHT22;20065;48.380;10.892;2023-02-08T14:06:24;1.40;99.90
33741;DHT22;20065;48.380;10.892;2023-02-08T14:12:22;1.40;99.90
33741;DHT22;20065;48.380;10.892;2023-02-08T14:18:02;1.10;99.90
33741;DHT22;20065;48.380;10.892;2023-02-08T14:21:02;1.10;99.90
33741;DHT22;20065;48.380;10.892;2023-02-08T14:23:59;1.00;99.90
33741;DHT22;20065;48.380;10.892;2023-02-08T14:26:46;1.00;99.90
33741;DHT22;20065;48.380;10.892;2023-02-08T14:29:33;1.00;99.90
33741;DHT22;20065;48.380;10.892;2023-02-08T14:32:24;1.00;99.90
33741;DHT22;20065;48.380;10.892;2023-02-08T14:41:04;0.90;99.90
33741;DHT22;20065;48.380;10.892;2023-02-08T14:43:51;0.80;99.90
33741;DHT22;20065;48.380;10.892;2023-02-08T14:46:43;0.80;99.90
33741;DHT22;20065;48.380;10.892;2023-02-08T14:49:39;0.80;99.90
33741;DHT22;20065;48.380;10.892;2023-02-08T14:52:28;0.80;99.90
33741;DHT22;20065;48.380;10.892;2023-02-08T14:55:18;0.80;99.90
33741;DHT22;20065;48.380;10.892;2023-02-08T14:58:07;0.70;99.90
33741;DHT22;20065;48.380;10.892;2023-02-08T15:01:01;0.60;99.90
33741;DHT22;20065;48.380;10.892;2023-02-08T15:03:49;0.60;99.90
33741;DHT22;20065;48.380;10.892;2023-02-08T15:09:25;0.50;99.90
33741;DHT22;20065;48.380;10.892;2023-02-08T15:12:36;0.50;99.90
33741;DHT22;20065;48.380;10.892;2023-02-08T15:15:28;0.50;99.90
33741;DHT22;20065;48.380;10.892;2023-02-08T15:18:31;0.50;99.90
33741;DHT22;20065;48.380;10.892;2023-02-08T15:21:22;0.50;99.90
33741;DHT22;20065;48.380;10.892;2023-02-08T15:24:22;0.40;99.90
33741;DHT22;20065;48.380;10.892;2023-02-08T15:27:21;0.50;99.90
33741;DHT22;20065;48.380;10.892;2023-02-08T15:30:22;0.30;99.90
33741;DHT22;20065;48.380;10.892;2023-02-08T15:33:13;0.30;99.90
33741;DHT22;20065;48.380;10.892;2023-02-08T15:36:07;0.30;99.90
33741;DHT22;20065;48.380;10.892;2023-02-08T15:39:03;0.30;99.90
33741;DHT22;20065;48.380;10.892;2023-02-08T15:41:56;0.20;99.90
33741;DHT22;20065;48.380;10.892;2023-02-08T15:44:45;0.10;99.90
33741;DHT22;20065;48.380;10.892;2023-02-08T15:47:40;0.10;99.90
33741;DHT22;20065;48.380;10.892;2023-02-08T15:50:30;0.00;99.90
33741;DHT22;20065;48.380;10.892;2023-02-08T15:53:22;0.00;99.90
33741;DHT22;20065;48.380;10.892;2023-02-08T15:56:09;0.00;99.90
33741;DHT22;20065;48.380;10.892;2023-02-08T15:58:58;0.00;99.90
33741;DHT22;20065;48.380;10.892;2023-02-08T16:01:46;0.00;99.90
33741;DHT22;20065;48.380;10.892;2023-02-08T16:04:43;0.00;99.90
33741;DHT22;20065;48.380;10.892;2023-02-08T16:07:36;-0.10;99.90
33741;DHT22;20065;48.380;10.892;2023-02-08T16:10:42;-0.10;99.90
33741;DHT22;20065;48.380;10.892;2023-02-08T16:13:33;-0.10;99.90
33741;DHT22;20065;48.380;10.892;2023-02-08T16:19:27;-0.10;99.90
33741;DHT22;20065;48.380;10.892;2023-02-08T16:25:31;-0.30;99.90
33741;DHT22;20065;48.380;10.892;2023-02-08T16:28:23;-0.30;99.90
33741;DHT22;20065;48.380;10.892;2023-02-08T16:31:10;-0.40;99.90
33741;DHT22;20065;48.380;10.892;2023-02-08T16:34:05;-0.40;99.90
33741;DHT22;20065;48.380;10.892;2023-02-08T16:36:52;-0.40;99.90
33741;DHT22;20065;48.380;10.892;2023-02-08T16:42:45;-0.50;99.90
33741;DHT22;20065;48.380;10.892;2023-02-08T16:45:31;-0.50;99.90
33741;DHT22;20065;48.380;10.892;2023-02-08T16:48:30;-0.60;99.90
33741;DHT22;20065;48.380;10.892;2023-02-08T16:51:23;-0.60;99.90
33741;DHT22;20065;48.380;10.892;2023-02-08T16:54:21;-0.60;99.90
33741;DHT22;20065;48.380;10.892;2023-02-08T16:57:07;-0.60;99.90
33741;DHT22;20065;48.380;10.892;2023-02-08T16:59:54;-0.60;99.90
33741;DHT22;20065;48.380;10.892;2023-02-08T17:02:41;-0.50;99.90
33741;DHT22;20065;48.380;10.892;2023-02-08T17:05:30;-0.60;99.90
33741;DHT22;20065;48.380;10.892;2023-02-08T17:08:19;-0.50;99.90
33741;DHT22;20065;48.380;10.892;2023-02-08T17:11:08;-0.50;99.90
33741;DHT22;20065;48.380;10.892;2023-02-08T17:13:55;-0.60;99.90
33741;DHT22;20065;48.380;10.892;2023-02-08T17:16:43;-0.60;99.90
33741;DHT22;20065;48.380;10.892;2023-02-08T17:19:29;-0.70;99.90
33741;DHT22;20065;48.380;10.892;2023-02-08T17:22:15;-0.70;99.90
33741;DHT22;20065;48.380;10.892;2023-02-08T17:25:01;-0.70;99.90
33741;DHT22;20065;48.380;10.892;2023-02-08T17:27:59;-0.70;99.90
33741;DHT22;20065;48.380;10.892;2023-02-08T17:30:48;-0.70;99.90
33741;DHT22;20065;48.380;10.892;2023-02-08T17:33:35;-0.70;99.90
33741;DHT22;20065;48.380;10.892;2023-02-08T17:36:24;-0.70;99.90
33741;DHT22;20065;48.380;10.892;2023-02-08T17:39:11;-0.80;99.90
33741;DHT22;20065;48.380;10.892;2023-02-08T17:41:57;-0.80;99.90
33741;DHT22;20065;48.380;10.892;2023-02-08T17:44:43;-0.90;99.90
33741;DHT22;20065;48.380;10.892;2023-02-08T17:47:29;-0.90;99.90
33741;DHT22;20065;48.380;10.892;2023-02-08T17:50:17;-1.00;99.90
33741;DHT22;20065;48.380;10.892;2023-02-08T17:53:03;-1.00;99.90
33741;DHT22;20065;48.380;10.892;2023-02-08T17:55:50;-1.00;99.90
33741;DHT22;20065;48.380;10.892;2023-02-08T17:58:37;-1.00;99.90
33741;DHT22;20065;48.380;10.892;2023-02-08T18:01:25;-1.00;99.90
33741;DHT22;20065;48.380;10.892;2023-02-08T18:04:12;-1.00;99.90
33741;DHT22;20065;48.380;10.892;2023-02-08T18:06:59;-1.10;99.90
33741;DHT22;20065;48.380;10.892;2023-02-08T18:09:45;-1.10;99.90
33741;DHT22;20065;48.380;10.892;2023-02-08T18:12:35;-1.10;99.90
33741;DHT22;20065;48.380;10.892;2023-02-08T18:15:22;-1.00;99.90
33741;DHT22;20065;48.380;10.892;2023-02-08T18:18:11;-1.00;99.90
33741;DHT22;20065;48.380;10.892;2023-02-08T18:20:57;-1.00;99.90
33741;DHT22;20065;48.380;10.892;2023-02-08T18:23:44;-1.00;99.90
33741;DHT22;20065;48.380;10.892;2023-02-08T18:26:32;-1.00;99.90
33741;DHT22;20065;48.380;10.892;2023-02-08T18:29:19;-1.00;99.90
33741;DHT22;20065;48.380;10.892;2023-02-08T18:32:05;-1.00;99.90
33741;DHT22;20065;48.380;10.892;2023-02-08T18:34:52;-1.00;99.90
33741;DHT22;20065;48.380;10.892;2023-02-08T18:37:38;-1.00;99.90
33741;DHT22;20065;48.380;10.892;2023-02-08T18:40:25;-1.00;99.90
33741;DHT22;20065;48.380;10.892;2023-02-08T18:43:11;-1.10;99.90
33741;DHT22;20065;48.380;10.892;2023-02-08T18:46:03;-1.10;99.90
33741;DHT22;20065;48.380;10.892;2023-02-08T18:48:51;-1.10;99.90
33741;DHT22;20065;48.380;10.892;2023-02-08T18:51:38;-1.10;99.90
33741;DHT22;20065;48.380;10.892;2023-02-08T18:54:25;-1.10;99.90
33741;DHT22;20065;48.380;10.892;2023-02-08T18:57:11;-1.20;99.90
33741;DHT22;20065;48.380;10.892;2023-02-08T18:59:57;-1.20;99.90
33741;DHT22;20065;48.380;10.892;2023-02-08T19:02:44;-1.20;99.90
33741;DHT22;20065;48.380;10.892;2023-02-08T19:05:36;-1.20;99.90
33741;DHT22;20065;48.380;10.892;2023-02-08T19:08:22;-1.30;99.90
33741;DHT22;20065;48.380;10.892;2023-02-08T19:11:25;-1.30;99.90
33741;DHT22;20065;48.380;10.892;2023-02-08T19:14:12;-1.30;99.90
33741;DHT22;20065;48.380;10.892;2023-02-08T19:17:02;-1.30;99.90
33741;DHT22;20065;48.380;10.892;2023-02-08T19:19:48;-1.30;99.90
33741;DHT22;20065;48.380;10.892;2023-02-08T19:22:34;-1.30;99.90
33741;DHT22;20065;48.380;10.892;2023-02-08T19:25:20;-1.40;99.90
33741;DHT22;20065;48.380;10.892;2023-02-08T19:28:07;-1.40;99.90
33741;DHT22;20065;48.380;10.892;2023-02-08T19:31:14;-1.40;99.90
33741;DHT22;20065;48.380;10.892;2023-02-08T19:34:02;-1.40;99.90
33741;DHT22;20065;48.380;10.892;2023-02-08T19:36:53;-1.40;99.90
33741;DHT22;20065;48.380;10.892;2023-02-08T19:39:40;-1.50;99.90
33741;DHT22;20065;48.380;10.892;2023-02-08T19:42:26;-1.50;99.90
33741;DHT22;20065;48.380;10.892;2023-02-08T19:45:13;-1.60;99.90
33741;DHT22;20065;48.380;10.892;2023-02-08T19:48:00;-1.60;99.90
33741;DHT22;20065;48.380;10.892;2023-02-08T19:50:57;-1.70;99.90
33741;DHT22;20065;48.380;10.892;2023-02-08T19:53:44;-1.70;99.90
33741;DHT22;20065;48.380;10.892;2023-02-08T19:56:30;-1.70;99.90
33741;DHT22;20065;48.380;10.892;2023-02-08T20:02:12;-1.70;99.90